Cat Bi International Airport
VVCI : now visible

Airfield :











YOU CAN JOIN US ON...

 
LOGIN :

Register | Disclaimer

   EN    FR    IT 

 









Legend :    VFR   Marginal VFR   IFR   Intensive IFR   Very Intensive IFR
Visi :
Ceiling :
>= 8 km
>= 3000ft
5 to 8 km
1000 to 3000 ft
1500m to 5 km
500 to 1000 ft
800 to 1500m
200 to 500 ft
< 800m
< 200 ft
Symbols :   Thunderstorms  Fog  Heavy snow  Heavy precipitations  Wind > 20 kt






- Airport Elevation : 6 ft
- IATA code : HPH


VVCI - Cat Bi International

CURRENT METAR :
  • 051500Z AUTO 20003KT 170V230 CAVOK 32/29 Q0999 NOSIG

EXPIRED METARs :
  • 051430Z AUTO 19004KT CAVOK 32/29 Q0999 NOSIG
  • 051400Z AUTO 18005KT CAVOK 32/29 Q0999 NOSIG
  • 051330Z AUTO 19003KT 150V210 9999 FEW140/// 33/30 Q0998 NOSIG
  • 051300Z AUTO 18005KT CAVOK 33/30 Q0998 NOSIG
  • 051230Z AUTO 16005KT CAVOK 33/30 Q0997 NOSIG

TAF TAF VVCI
Valid from the 05 at 12:00 until the 06 at 12:00 UTC


051100Z 0512/0612 29006KT 9999 SCT025



MET'MAP, your aeronautical weather chart ! - Copyright ORBIFLY December 2007 - Disclaimer

ORBIFLY MET'MAP TEAM :

Programming & Development : Alexandra Zaïnal
Concept & original design : Baudouin d'Aumeries
Assistance for programming : Marc-Olivier Méhu
Technical & hardware support : Manuel Goepfert

Contact : metmap@orbifly.com




SOURCES & CREDITS :

   NOAA       Earth
Advisory